createdAt,value
2017-10-09T00:01:56.894Z,15.10
2017-10-09T00:04:26.068Z,10.87
2017-10-09T00:06:55.233Z,18.03
2017-10-09T00:09:24.334Z,17.53
2017-10-09T00:11:53.497Z,16.73
2017-10-09T00:14:23.481Z,12.77
2017-10-09T00:16:59.317Z,14.23
2017-10-09T00:19:36.793Z,15.80
2017-10-09T00:22:05.964Z,13.07
2017-10-09T00:24:35.279Z,15.87
2017-10-09T00:27:04.457Z,13.70
2017-10-09T00:29:33.640Z,13.87
2017-10-09T00:32:16.221Z,16.03
2017-10-09T00:34:50.648Z,16.40
2017-10-09T00:37:19.844Z,16.03
2017-10-09T00:39:56.262Z,15.73
2017-10-09T00:42:25.424Z,12.50
2017-10-09T00:44:54.557Z,13.17
2017-10-09T00:47:23.782Z,11.97
2017-10-09T00:49:53.157Z,14.43
2017-10-09T00:52:23.448Z,13.27
2017-10-09T00:54:52.549Z,13.43
2017-10-09T00:57:21.787Z,11.37
2017-10-09T00:59:50.914Z,13.67
2017-10-09T01:02:20.138Z,16.30
2017-10-09T01:04:49.359Z,15.43
2017-10-09T01:07:18.502Z,13.67
2017-10-09T01:09:47.752Z,13.33
2017-10-09T01:12:18.725Z,23.10
2017-10-09T01:14:47.842Z,14.37
2017-10-09T01:17:16.978Z,29.93
2017-10-09T01:19:49.533Z,11.30
2017-10-09T01:22:18.714Z,22.03
2017-10-09T01:24:47.886Z,16.33
2017-10-09T01:27:24.873Z,14.30
2017-10-09T01:29:53.981Z,14.67
2017-10-09T01:32:23.192Z,20.37
2017-10-09T01:34:58.549Z,11.67
2017-10-09T01:37:33.705Z,17.10
2017-10-09T01:40:02.882Z,16.97
2017-10-09T01:42:39.446Z,15.20
2017-10-09T01:45:08.773Z,15.87
2017-10-09T01:47:37.906Z,12.07
2017-10-09T01:50:07.290Z,17.50
2017-10-09T01:52:36.817Z,16.20
2017-10-09T01:55:06.007Z,15.00
2017-10-09T01:57:35.265Z,18.40
2017-10-09T02:00:17.349Z,15.33
2017-10-09T02:02:46.611Z,13.13
2017-10-09T02:05:15.748Z,17.60
2017-10-09T02:07:44.886Z,16.27
2017-10-09T02:10:14.024Z,11.90
2017-10-09T02:12:43.337Z,17.03
2017-10-09T02:15:12.422Z,17.30
2017-10-09T02:17:42.900Z,18.73
2017-10-09T02:20:12.022Z,16.40
2017-10-09T02:22:41.138Z,25.63
2017-10-09T02:25:10.542Z,16.23
2017-10-09T02:27:40.033Z,23.03
2017-10-09T02:30:09.432Z,13.87
2017-10-09T02:32:38.543Z,17.90
2017-10-09T02:35:07.666Z,13.37
2017-10-09T02:37:36.790Z,13.87
2017-10-09T02:40:05.917Z,21.63
2017-10-09T02:42:35.693Z,17.97
2017-10-09T02:45:04.823Z,17.10
2017-10-09T02:47:33.970Z,13.73
2017-10-09T02:50:03.078Z,22.87
2017-10-09T02:52:32.465Z,22.43
2017-10-09T02:55:07.812Z,16.90
2017-10-09T02:57:36.948Z,20.97
2017-10-09T03:00:06.101Z,19.57
2017-10-09T03:02:35.603Z,15.27
2017-10-09T03:05:04.687Z,26.17
2017-10-09T03:07:33.912Z,17.03
2017-10-09T03:10:10.422Z,21.30
2017-10-09T03:12:54.189Z,18.87
2017-10-09T03:15:23.325Z,21.97
2017-10-09T03:17:52.458Z,19.87
2017-10-09T03:20:21.609Z,23.77
2017-10-09T03:23:11.838Z,22.80
2017-10-09T03:25:56.918Z,34.90
2017-10-09T03:28:36.744Z,22.13
2017-10-09T03:31:05.940Z,39.90
2017-10-09T03:33:35.428Z,22.50
2017-10-09T03:36:11.222Z,33.90
2017-10-09T03:38:41.678Z,28.03
2017-10-09T03:41:10.863Z,24.27
2017-10-09T03:43:40.079Z,30.73
2017-10-09T03:46:09.290Z,47.53
2017-10-09T03:48:38.431Z,84.07
2017-10-09T03:51:13.682Z,32.87
2017-10-09T03:53:55.164Z,33.17
2017-10-09T03:56:24.907Z,28.93
2017-10-09T03:58:54.034Z,46.10
2017-10-09T04:01:23.199Z,43.33
2017-10-09T04:03:52.290Z,35.30
2017-10-09T04:06:21.392Z,31.00
2017-10-09T04:08:56.863Z,14.40
2017-10-09T04:11:25.994Z,27.13
2017-10-09T04:13:55.133Z,33.63
2017-10-09T04:16:24.396Z,32.30
2017-10-09T04:18:53.548Z,28.23
2017-10-09T04:21:37.193Z,34.53
2017-10-09T04:24:06.381Z,20.17
2017-10-09T04:26:35.620Z,34.50
2017-10-09T04:29:13.373Z,47.13
2017-10-09T04:31:42.570Z,32.67
2017-10-09T04:34:11.770Z,26.07
2017-10-09T04:36:40.952Z,24.73
2017-10-09T04:39:10.082Z,31.03
2017-10-09T04:41:52.614Z,31.73
2017-10-09T04:44:21.744Z,40.20
2017-10-09T04:46:50.886Z,29.27
2017-10-09T04:49:20.113Z,40.43
2017-10-09T04:51:50.009Z,43.03
2017-10-09T04:54:19.277Z,88.17
2017-10-09T04:56:48.615Z,52.20
2017-10-09T04:59:17.765Z,48.97
2017-10-09T05:01:46.881Z,59.57
2017-10-09T05:04:16.057Z,67.47
2017-10-09T05:06:45.173Z,47.00
2017-10-09T05:09:14.316Z,80.53
2017-10-09T05:11:43.430Z,75.83
2017-10-09T05:14:13.452Z,32.83
2017-10-09T05:16:42.601Z,25.03
2017-10-09T05:19:11.802Z,27.30
2017-10-09T05:21:44.145Z,27.23
2017-10-09T05:24:13.300Z,33.63
2017-10-09T05:26:42.512Z,47.67
2017-10-09T05:29:11.693Z,29.20
2017-10-09T05:31:40.849Z,66.00
2017-10-09T05:34:09.957Z,41.07
2017-10-09T05:36:39.094Z,67.83
2017-10-09T05:39:08.739Z,162.47
2017-10-09T05:41:37.840Z,159.77
2017-10-09T05:44:06.971Z,200.00
2017-10-09T05:46:36.122Z,114.93
2017-10-09T05:49:05.227Z,115.80
2017-10-09T05:51:34.367Z,95.03
2017-10-09T05:54:14.218Z,55.40
2017-10-09T05:56:43.519Z,80.70
2017-10-09T05:59:12.776Z,64.03
2017-10-09T06:01:42.117Z,59.20
2017-10-09T06:04:11.249Z,30.53
2017-10-09T06:06:40.461Z,50.83
2017-10-09T06:09:09.830Z,40.17
2017-10-09T06:11:39.225Z,37.17
2017-10-09T06:14:08.333Z,51.57
2017-10-09T06:16:46.003Z,47.87
2017-10-09T06:19:15.814Z,41.73
2017-10-09T06:21:45.395Z,49.13
2017-10-09T06:24:14.508Z,58.20
2017-10-09T06:26:43.653Z,42.77
2017-10-09T06:29:12.744Z,24.80
2017-10-09T06:31:41.900Z,53.50
2017-10-09T06:34:11.097Z,42.73
2017-10-09T06:36:40.289Z,57.47
2017-10-09T06:39:09.493Z,62.00
2017-10-09T06:41:38.581Z,78.83
2017-10-09T06:44:07.801Z,109.90
2017-10-09T06:46:36.922Z,146.13
2017-10-09T06:49:06.261Z,144.20
2017-10-09T06:51:35.408Z,97.73
2017-10-09T06:54:04.605Z,110.23
2017-10-09T06:56:33.892Z,141.03
2017-10-09T06:59:03.224Z,88.30
2017-10-09T07:01:34.564Z,112.03
2017-10-09T07:04:04.152Z,141.47
2017-10-09T07:06:33.290Z,49.57
2017-10-09T07:09:02.685Z,44.10
2017-10-09T07:11:46.901Z,56.37
2017-10-09T07:14:16.141Z,69.83
2017-10-09T07:16:45.269Z,43.57
2017-10-09T07:19:14.827Z,85.57
2017-10-09T07:21:46.115Z,50.50
2017-10-09T07:24:15.322Z,52.03
2017-10-09T07:26:44.645Z,43.43
2017-10-09T07:29:13.745Z,56.37
2017-10-09T07:31:51.805Z,60.07
2017-10-09T07:34:20.885Z,68.00
2017-10-09T07:36:49.992Z,36.50
2017-10-09T07:39:19.257Z,56.03
2017-10-09T07:41:49.779Z,27.67
2017-10-09T07:44:26.615Z,30.23
2017-10-09T07:46:55.834Z,26.30
2017-10-09T07:49:24.971Z,25.20
2017-10-09T07:51:54.110Z,12.83
2017-10-09T07:54:24.123Z,17.43
2017-10-09T07:56:53.405Z,17.30
2017-10-09T07:59:22.876Z,16.33
2017-10-09T08:01:52.311Z,23.77
2017-10-09T08:04:21.385Z,17.03
2017-10-09T08:06:50.523Z,17.97
2017-10-09T08:09:19.620Z,11.93
2017-10-09T08:12:02.912Z,32.10
2017-10-09T08:14:32.591Z,23.93
2017-10-09T08:17:01.739Z,26.97
2017-10-09T08:19:34.674Z,29.67
2017-10-09T08:22:03.836Z,25.90
2017-10-09T08:24:33.011Z,17.40
2017-10-09T08:27:02.314Z,22.87
2017-10-09T08:29:31.675Z,13.50
2017-10-09T08:32:00.830Z,24.13
2017-10-09T08:34:30.279Z,21.60
2017-10-09T08:36:59.899Z,9.93
2017-10-09T08:39:29.050Z,18.13
2017-10-09T08:41:58.189Z,16.63
2017-10-09T08:44:35.503Z,12.83
2017-10-09T08:47:05.518Z,20.27
2017-10-09T08:49:34.824Z,10.20
2017-10-09T08:52:03.973Z,14.60
2017-10-09T08:54:33.217Z,28.77
2017-10-09T08:57:02.631Z,13.40
2017-10-09T08:59:32.831Z,17.90
2017-10-09T09:02:02.008Z,18.80
2017-10-09T09:04:31.097Z,13.23
2017-10-09T09:07:01.379Z,15.73
2017-10-09T09:09:30.525Z,14.80
2017-10-09T09:12:03.000Z,13.40
2017-10-09T09:14:32.127Z,17.43
2017-10-09T09:17:01.512Z,11.73
2017-10-09T09:19:39.531Z,21.07
2017-10-09T09:22:08.649Z,19.00
2017-10-09T09:24:51.412Z,18.10
2017-10-09T09:27:20.739Z,16.07
2017-10-09T09:29:49.831Z,18.27
2017-10-09T09:32:18.976Z,14.60
2017-10-09T09:34:48.111Z,14.00
2017-10-09T09:37:28.506Z,13.83
2017-10-09T09:39:57.820Z,10.43
2017-10-09T09:42:26.958Z,15.73
2017-10-09T09:44:56.068Z,11.20
2017-10-09T09:47:25.285Z,15.60
2017-10-09T09:49:54.393Z,12.03
2017-10-09T09:52:23.718Z,10.90
2017-10-09T09:54:52.862Z,10.73
2017-10-09T09:57:22.007Z,16.80
2017-10-09T09:59:51.854Z,14.40
2017-10-09T10:02:20.950Z,12.63
2017-10-09T10:04:50.235Z,21.10
2017-10-09T10:07:19.361Z,29.70
2017-10-09T10:09:49.137Z,22.03
2017-10-09T10:12:18.269Z,13.13
2017-10-09T10:14:47.410Z,17.70
2017-10-09T10:17:16.525Z,27.80
2017-10-09T10:19:45.674Z,21.13
2017-10-09T10:22:14.812Z,21.30
2017-10-09T10:24:56.189Z,17.90
2017-10-09T10:27:31.800Z,10.83
2017-10-09T10:30:00.916Z,19.50
2017-10-09T10:32:30.177Z,10.97
2017-10-09T10:34:59.341Z,11.53
2017-10-09T10:37:28.441Z,15.00
2017-10-09T10:39:57.557Z,13.70
2017-10-09T10:42:27.616Z,9.93
2017-10-09T10:44:56.882Z,16.33
2017-10-09T10:47:25.972Z,16.07
2017-10-09T10:50:09.009Z,18.40
2017-10-09T10:52:38.293Z,12.77
2017-10-09T10:55:20.687Z,15.60
2017-10-09T10:57:49.795Z,15.57
2017-10-09T11:00:19.126Z,17.00
2017-10-09T11:02:48.456Z,15.70
2017-10-09T11:05:17.562Z,16.70
2017-10-09T11:07:46.658Z,14.80
2017-10-09T11:10:15.793Z,19.47
2017-10-09T11:12:58.383Z,24.77
2017-10-09T11:15:31.157Z,21.57
2017-10-09T11:18:00.301Z,17.50
2017-10-09T11:20:29.439Z,23.87
2017-10-09T11:23:11.269Z,25.57
2017-10-09T11:25:40.390Z,19.33
2017-10-09T11:28:09.509Z,18.50
2017-10-09T11:30:38.981Z,14.80
2017-10-09T11:33:08.333Z,9.23
2017-10-09T11:35:43.458Z,21.30
2017-10-09T11:38:13.038Z,14.50
2017-10-09T11:40:43.635Z,12.87
2017-10-09T11:43:12.772Z,13.60
2017-10-09T11:45:42.108Z,17.93
2017-10-09T11:48:11.270Z,11.77
2017-10-09T11:50:40.412Z,10.90
2017-10-09T11:53:09.694Z,13.50
2017-10-09T11:55:39.045Z,17.97
2017-10-09T11:58:08.284Z,9.23
2017-10-09T12:00:37.641Z,14.10
2017-10-09T12:03:13.837Z,10.10
2017-10-09T12:05:43.321Z,7.40
2017-10-09T12:08:14.111Z,5.23
2017-10-09T12:10:43.228Z,8.43
2017-10-09T12:13:18.439Z,6.10
2017-10-09T12:15:47.654Z,13.00
2017-10-09T12:18:16.858Z,7.47
2017-10-09T12:20:46.211Z,10.03
2017-10-09T12:23:15.378Z,10.53
2017-10-09T12:25:44.536Z,13.63
2017-10-09T12:28:13.698Z,4.80
2017-10-09T12:30:42.829Z,21.13
2017-10-09T12:33:12.076Z,7.37
2017-10-09T12:35:41.340Z,7.00
2017-10-09T12:38:10.482Z,10.20
2017-10-09T12:40:39.592Z,8.83
2017-10-09T12:43:16.460Z,12.23
2017-10-09T12:45:45.595Z,10.03
2017-10-09T12:48:14.740Z,30.97
2017-10-09T12:50:43.897Z,14.77
2017-10-09T12:53:13.579Z,12.23
2017-10-09T12:55:42.670Z,10.77
2017-10-09T12:58:15.646Z,15.73
2017-10-09T13:00:44.824Z,11.13
2017-10-09T13:03:29.107Z,8.70
2017-10-09T13:05:58.453Z,12.70
2017-10-09T13:08:27.835Z,10.20
2017-10-09T13:10:57.452Z,13.27
2017-10-09T13:13:27.931Z,15.70
2017-10-09T13:15:57.247Z,5.20
2017-10-09T13:18:26.412Z,14.17
2017-10-09T13:20:55.566Z,18.43
2017-10-09T13:23:32.456Z,13.83
2017-10-09T13:26:01.782Z,9.87
2017-10-09T13:28:30.943Z,16.77
2017-10-09T13:31:00.292Z,10.77
2017-10-09T13:33:29.412Z,16.98
2017-10-09T13:36:13.225Z,7.97
2017-10-09T13:38:42.359Z,8.43
2017-10-09T13:41:12.411Z,20.13
2017-10-09T13:43:41.565Z,14.00
2017-10-09T13:46:10.724Z,15.77
2017-10-09T13:48:39.844Z,15.93
2017-10-09T13:51:08.930Z,17.17
2017-10-09T13:53:38.092Z,12.70
2017-10-09T13:56:14.360Z,12.20
2017-10-09T13:58:50.641Z,14.10
2017-10-09T14:01:19.785Z,18.47
2017-10-09T14:03:49.493Z,20.77
2017-10-09T14:06:18.626Z,18.53
2017-10-09T14:08:47.798Z,24.60
2017-10-09T14:11:16.899Z,19.63
2017-10-09T14:13:46.428Z,19.50
2017-10-09T14:16:28.522Z,22.93
2017-10-09T14:18:57.722Z,16.87
2017-10-09T14:21:26.857Z,23.13
2017-10-09T14:23:55.981Z,18.77
2017-10-09T14:26:32.104Z,19.13
2017-10-09T14:29:01.251Z,16.37
2017-10-09T14:41:33.444Z,21.60
2017-10-09T14:44:02.569Z,19.67
2017-10-09T14:46:31.923Z,24.63
2017-10-09T14:49:07.940Z,17.83
2017-10-09T14:51:37.082Z,16.93
2017-10-09T14:54:06.329Z,17.83
2017-10-09T14:56:35.920Z,25.50
2017-10-09T14:59:11.290Z,32.50
2017-10-09T15:01:42.518Z,23.23
2017-10-09T15:04:11.671Z,16.90
2017-10-09T15:06:40.788Z,32.93
2017-10-09T15:09:10.079Z,13.87
2017-10-09T15:11:39.236Z,24.73
2017-10-09T15:14:09.076Z,21.50
2017-10-09T15:16:39.281Z,21.43
2017-10-09T15:19:08.635Z,26.60
2017-10-09T15:21:38.155Z,22.77
2017-10-09T15:24:07.491Z,30.43
2017-10-09T15:26:36.609Z,16.17
2017-10-09T15:29:05.790Z,24.80
2017-10-09T15:31:34.972Z,27.63
2017-10-09T15:34:04.085Z,20.17
2017-10-09T15:36:33.226Z,23.57
2017-10-09T15:39:10.292Z,28.87
2017-10-09T15:41:59.163Z,32.30
2017-10-09T15:44:28.262Z,33.97
2017-10-09T15:46:57.638Z,29.30
2017-10-09T15:49:34.882Z,29.73
2017-10-09T15:52:10.232Z,15.47
2017-10-09T15:54:52.852Z,27.77
2017-10-09T15:57:28.110Z,25.50
2017-10-09T15:59:57.270Z,28.97
2017-10-09T16:02:26.370Z,22.37
2017-10-09T16:04:55.517Z,28.13
2017-10-09T16:07:24.617Z,37.90
2017-10-09T16:09:54.147Z,24.83
2017-10-09T16:12:23.296Z,30.30
2017-10-09T16:14:52.409Z,18.33
2017-10-09T16:17:21.721Z,21.00
2017-10-09T16:19:50.833Z,29.80
2017-10-09T16:22:19.947Z,27.07
2017-10-09T16:24:55.656Z,17.87
2017-10-09T16:27:24.753Z,24.23
2017-10-09T16:29:53.944Z,26.70
2017-10-09T16:32:30.667Z,17.30
2017-10-09T16:35:00.219Z,26.13
2017-10-09T16:37:29.585Z,17.43
2017-10-09T16:39:58.871Z,38.97
2017-10-09T16:42:28.265Z,25.03
2017-10-09T16:44:59.266Z,22.53
2017-10-09T16:47:28.391Z,29.13
2017-10-09T16:49:57.486Z,33.43
2017-10-09T16:52:26.566Z,30.77
2017-10-09T16:54:55.962Z,40.50
2017-10-09T16:57:25.057Z,20.13
2017-10-09T16:59:54.415Z,27.80
2017-10-09T17:02:37.056Z,46.60
2017-10-09T17:05:06.176Z,23.83
2017-10-09T17:07:35.268Z,37.93
2017-10-09T17:10:04.454Z,21.90
2017-10-09T17:12:46.753Z,23.63
2017-10-09T17:15:15.862Z,28.80
2017-10-09T17:17:51.295Z,26.17
2017-10-09T17:20:21.276Z,24.30
2017-10-09T17:22:52.167Z,29.23
2017-10-09T17:25:21.309Z,34.57
2017-10-09T17:27:50.397Z,22.63
2017-10-09T17:30:19.492Z,27.00
2017-10-09T17:32:48.838Z,39.07
2017-10-09T17:35:18.281Z,21.47
2017-10-09T17:37:47.490Z,22.83
2017-10-09T17:40:16.609Z,24.97
2017-10-09T17:42:45.750Z,31.43
2017-10-09T17:45:14.880Z,26.13
2017-10-09T17:47:56.434Z,24.93
2017-10-09T17:50:25.538Z,35.07
2017-10-09T17:52:55.732Z,28.73
2017-10-09T17:55:25.016Z,19.03
2017-10-09T17:57:54.457Z,31.67
2017-10-09T18:00:24.433Z,17.17
2017-10-09T18:02:53.813Z,25.60
2017-10-09T18:05:23.064Z,27.80
2017-10-09T18:07:52.178Z,28.57
2017-10-09T18:10:27.354Z,31.07
2017-10-09T18:12:56.718Z,35.77
2017-10-09T18:15:26.069Z,34.70
2017-10-09T18:17:55.382Z,28.20
2017-10-09T18:20:24.810Z,33.47
2017-10-09T18:23:01.746Z,23.90
2017-10-09T18:25:30.937Z,39.00
2017-10-09T18:28:06.052Z,25.30
2017-10-09T18:30:35.193Z,27.80
2017-10-09T18:33:04.937Z,28.50
2017-10-09T18:35:34.081Z,33.10
2017-10-09T18:38:03.293Z,27.50
2017-10-09T18:40:32.615Z,27.20
2017-10-09T18:43:05.266Z,33.83
2017-10-09T18:45:46.405Z,25.23
2017-10-09T18:48:15.562Z,30.33
2017-10-09T18:50:44.773Z,25.70
2017-10-09T18:53:14.234Z,27.13
2017-10-09T18:55:43.389Z,34.67
2017-10-09T18:58:13.054Z,21.60
2017-10-09T19:00:42.522Z,21.30
2017-10-09T19:03:11.706Z,37.80
2017-10-09T19:05:40.886Z,23.07
2017-10-09T19:08:10.091Z,43.33
2017-10-09T19:10:39.293Z,31.73
2017-10-09T19:13:14.771Z,30.67
2017-10-09T19:15:44.015Z,38.73
2017-10-09T19:18:13.433Z,19.70
2017-10-09T19:20:42.543Z,20.33
2017-10-09T19:23:11.694Z,32.63
2017-10-09T19:25:40.932Z,21.20
2017-10-09T19:28:16.358Z,33.80
2017-10-09T19:30:47.289Z,27.03
2017-10-09T19:33:16.633Z,17.03
2017-10-09T19:35:46.123Z,30.80
2017-10-09T19:38:29.418Z,20.33
2017-10-09T19:40:58.570Z,35.53
2017-10-09T19:43:40.502Z,23.90
2017-10-09T19:46:09.857Z,37.97
2017-10-09T19:48:39.741Z,27.83
2017-10-09T19:51:14.866Z,22.70
2017-10-09T19:53:57.398Z,23.83
2017-10-09T19:56:26.810Z,16.90
2017-10-09T19:58:56.825Z,27.27
2017-10-09T20:01:32.250Z,22.93
2017-10-09T20:04:08.955Z,22.97
2017-10-09T20:06:39.141Z,27.37
2017-10-09T20:09:08.427Z,17.87
2017-10-09T20:11:37.743Z,20.97
2017-10-09T20:14:07.126Z,23.33
2017-10-09T20:16:36.413Z,25.37
2017-10-09T20:19:09.526Z,19.67
2017-10-09T20:21:38.775Z,36.93
2017-10-09T20:24:07.995Z,22.27
2017-10-09T20:26:37.204Z,38.73
2017-10-09T20:29:06.362Z,33.80
2017-10-09T20:31:36.154Z,23.67
2017-10-09T20:34:11.430Z,22.20
2017-10-09T20:36:40.545Z,20.13
2017-10-09T20:39:09.746Z,22.53
2017-10-09T20:41:59.259Z,28.27
2017-10-09T20:44:28.409Z,14.93
2017-10-09T20:47:04.759Z,11.40
2017-10-09T20:49:34.184Z,21.80
2017-10-09T20:52:07.074Z,23.03
2017-10-09T20:54:36.358Z,13.77
2017-10-09T20:57:05.503Z,25.07
2017-10-09T20:59:35.078Z,17.23
2017-10-09T21:02:04.201Z,10.67
2017-10-09T21:04:33.327Z,24.23
2017-10-09T21:07:02.641Z,14.30
2017-10-09T21:09:31.923Z,12.07
2017-10-09T21:12:01.064Z,10.33
2017-10-09T21:14:36.535Z,9.37
2017-10-09T21:17:05.665Z,9.67
2017-10-09T21:19:37.959Z,12.33
2017-10-09T21:22:07.110Z,14.63
2017-10-09T21:24:37.535Z,15.30
2017-10-09T21:27:07.956Z,17.23
2017-10-09T21:29:37.232Z,9.00
2017-10-09T21:32:08.121Z,13.03
2017-10-09T21:34:37.482Z,20.97
2017-10-09T21:37:06.905Z,18.87
2017-10-09T21:39:44.479Z,8.93
2017-10-09T21:42:13.722Z,11.40
2017-10-09T21:44:49.644Z,9.57
2017-10-09T21:47:18.858Z,10.23
2017-10-09T21:49:48.007Z,11.10
2017-10-09T21:52:26.039Z,9.27
2017-10-09T21:54:55.288Z,11.80
2017-10-09T21:57:25.056Z,8.87
2017-10-09T21:59:54.208Z,11.43
2017-10-09T22:02:29.320Z,14.20
2017-10-09T22:05:07.326Z,15.57
2017-10-09T22:07:52.031Z,9.70
2017-10-09T22:10:29.049Z,9.63
2017-10-09T22:12:58.202Z,14.70
2017-10-09T22:15:27.317Z,14.60
2017-10-09T22:17:56.465Z,11.90
2017-10-09T22:20:25.821Z,13.77
2017-10-09T22:23:14.049Z,11.60
2017-10-09T22:25:50.194Z,8.70
2017-10-09T22:28:19.476Z,14.30
2017-10-09T22:30:48.694Z,12.37
2017-10-09T22:33:24.281Z,14.63
2017-10-09T22:35:53.445Z,8.00
2017-10-09T22:38:35.822Z,12.07
2017-10-09T22:41:04.943Z,12.93
2017-10-09T22:43:34.346Z,10.27
2017-10-09T22:46:03.626Z,12.10
2017-10-09T22:48:32.735Z,11.10
2017-10-09T22:51:01.824Z,10.23
2017-10-09T22:53:31.103Z,9.40
2017-10-09T22:56:00.196Z,19.13
2017-10-09T22:58:29.321Z,10.70
2017-10-09T23:00:58.463Z,15.17
2017-10-09T23:03:27.847Z,14.93
2017-10-09T23:05:56.971Z,10.17
2017-10-09T23:08:26.097Z,27.87
2017-10-09T23:11:08.701Z,10.00
2017-10-09T23:13:37.851Z,10.23
2017-10-09T23:16:14.287Z,11.30
2017-10-09T23:18:43.560Z,9.63
2017-10-09T23:21:15.127Z,7.60
2017-10-09T23:23:46.883Z,13.63
2017-10-09T23:26:16.101Z,12.03
2017-10-09T23:28:59.209Z,14.93
2017-10-09T23:31:41.409Z,8.03
2017-10-09T23:34:11.003Z,8.57
2017-10-09T23:36:40.104Z,12.03
2017-10-09T23:39:16.937Z,5.83
2017-10-09T23:41:58.214Z,15.77
2017-10-09T23:44:27.652Z,14.63
2017-10-09T23:46:56.761Z,13.63
2017-10-09T23:49:26.006Z,11.93
2017-10-09T23:51:55.504Z,14.33
2017-10-09T23:54:24.640Z,13.63
2017-10-09T23:56:53.718Z,13.63
2017-10-09T23:59:36.123Z,16.97
